ETNN

Norvenich Airport

Germany
METAR ETNN 250020Z VRB02KT 9999 FEW100 BKN260 15/14 Q1017 BLU+
Observed Flight Rules
May-25 @ 00:20 UTC (59 minutes ago) Visual Flight Rules
Wind Visibility Clouds
Variable at 2 knots 10,000+ meters
  • Few at 10,000' AGL
  • Broken at 26,000' AGL
Temperatures Readings
Current 15°C / 59°F
Dewpoint 14°C / 57°F
Humidity 94%
Altimeter 30.03" Hg
Pressure 1017 hPa
Elevation 135
METAR ETNN 250020Z VRB02KT 9999 FEW100 BKN260 15/14 Q1017 BLU+
Observed Flight Rules
May-25 @ 00:20 UTC
(59 minutes ago)
VFR
Wind Visibility
Variable at 2 knots 10,000+ meters
Clouds
  • Few at 10,000' AGL
  • Broken at 26,000' AGL
Temperature Dewpoint
15°C / 59°F 14°C / 57°F
Humidity Altimeter Pressure
94% 30.03" Hg 1017 hPa